createdAt,value
2019-04-04T00:01:39.297Z,10.23
2019-04-04T00:04:08.348Z,10.21
2019-04-04T00:06:37.430Z,10.18
2019-04-04T00:09:09.555Z,10.18
2019-04-04T00:11:38.664Z,10.16
2019-04-04T00:14:07.693Z,10.15
2019-04-04T00:16:36.772Z,10.14
2019-04-04T00:19:05.838Z,10.13
2019-04-04T00:21:34.839Z,10.10
2019-04-04T00:24:03.990Z,10.08
2019-04-04T00:26:33.082Z,10.03
2019-04-04T00:29:02.160Z,9.99
2019-04-04T00:31:31.220Z,9.94
2019-04-04T00:34:00.292Z,9.90
2019-04-04T00:36:29.359Z,9.87
2019-04-04T00:38:58.410Z,9.84
2019-04-04T00:41:27.493Z,9.80
2019-04-04T00:43:56.554Z,9.76
2019-04-04T00:46:25.643Z,9.70
2019-04-04T00:48:54.609Z,9.66
2019-04-04T00:51:23.705Z,9.62
2019-04-04T00:53:52.759Z,9.55
2019-04-04T00:56:21.844Z,9.49
2019-04-04T00:58:52.075Z,9.41
2019-04-04T01:01:21.678Z,9.35
2019-04-04T01:03:50.684Z,9.31
2019-04-04T01:06:19.765Z,9.23
2019-04-04T01:08:48.833Z,9.15
2019-04-04T01:11:18.314Z,9.08
2019-04-04T01:13:48.616Z,9.04
2019-04-04T01:16:17.704Z,8.99
2019-04-04T01:18:46.692Z,8.95
2019-04-04T01:21:15.790Z,8.90
2019-04-04T01:23:44.838Z,8.86
2019-04-04T01:26:13.909Z,8.85
2019-04-04T01:28:42.968Z,8.85
2019-04-04T01:31:14.643Z,8.84
2019-04-04T01:33:42.813Z,8.73
2019-04-04T01:36:11.894Z,8.65
2019-04-04T01:38:40.945Z,8.52
2019-04-04T01:41:10.042Z,8.39
2019-04-04T01:43:40.028Z,8.29
2019-04-04T01:46:09.883Z,8.20
2019-04-04T01:48:38.943Z,8.14
2019-04-04T01:51:08.157Z,8.07
2019-04-04T01:53:37.182Z,8.05
2019-04-04T01:56:07.040Z,8.01
2019-04-04T01:58:36.217Z,7.97
2019-04-04T02:01:05.274Z,7.93
2019-04-04T02:03:34.351Z,7.92
2019-04-04T02:06:03.409Z,7.89
2019-04-04T02:08:32.499Z,7.88
2019-04-04T02:11:01.552Z,7.89
2019-04-04T02:13:30.633Z,7.89
2019-04-04T02:15:59.692Z,7.89
2019-04-04T02:18:28.770Z,7.89
2019-04-04T02:20:58.442Z,7.83
2019-04-04T02:23:27.666Z,7.80
2019-04-04T02:25:56.709Z,7.79
2019-04-04T02:28:25.790Z,7.76
2019-04-04T02:30:54.920Z,7.73
2019-04-04T02:33:23.985Z,7.68
2019-04-04T02:35:53.085Z,7.66
2019-04-04T02:38:22.158Z,7.62
2019-04-04T02:40:51.221Z,7.60
2019-04-04T02:43:20.288Z,7.55
2019-04-04T02:45:49.417Z,7.52
2019-04-04T02:48:23.370Z,7.52
2019-04-04T02:50:49.250Z,7.49
2019-04-04T02:53:20.372Z,7.45
2019-04-04T02:55:49.115Z,7.41
2019-04-04T02:58:18.189Z,7.38
2019-04-04T03:00:47.368Z,7.38
2019-04-04T03:03:16.749Z,7.36
2019-04-04T03:05:50.779Z,7.32
2019-04-04T03:08:16.601Z,7.28
2019-04-04T03:10:48.221Z,7.25
2019-04-04T03:13:16.449Z,7.20
2019-04-04T03:15:48.207Z,7.17
2019-04-04T03:18:16.290Z,7.14
2019-04-04T03:20:49.275Z,7.11
2019-04-04T03:23:15.977Z,7.11
2019-04-04T03:25:47.397Z,7.10
2019-04-04T03:28:15.839Z,7.09
2019-04-04T03:30:52.534Z,7.07
2019-04-04T03:33:15.623Z,7.05
2019-04-04T03:35:44.697Z,7.01
2019-04-04T03:38:14.118Z,6.97
2019-04-04T03:40:43.296Z,6.93
2019-04-04T03:43:15.915Z,6.89
2019-04-04T03:45:42.984Z,6.85
2019-04-04T03:48:16.990Z,6.81
2019-04-04T03:50:42.701Z,6.78
2019-04-04T03:53:16.166Z,6.76
2019-04-04T03:55:42.485Z,6.72
2019-04-04T03:58:11.556Z,6.70
2019-04-04T04:00:40.773Z,6.66
2019-04-04T04:03:09.866Z,6.63
2019-04-04T04:05:40.696Z,6.62
2019-04-04T04:08:09.701Z,6.56
2019-04-04T04:10:38.767Z,6.51
2019-04-04T04:13:09.058Z,6.45
2019-04-04T04:15:38.046Z,6.42
2019-04-04T04:18:07.128Z,6.40
2019-04-04T04:20:37.637Z,6.40
2019-04-04T04:23:07.115Z,6.40
2019-04-04T04:25:36.834Z,6.38
2019-04-04T04:28:06.143Z,6.37
2019-04-04T04:30:39.395Z,6.35
2019-04-04T04:33:06.036Z,6.34
2019-04-04T04:35:35.111Z,6.32
2019-04-04T04:38:04.224Z,6.27
2019-04-04T04:40:33.121Z,6.26
2019-04-04T04:43:02.117Z,6.23
2019-04-04T04:45:31.186Z,6.21
2019-04-04T04:48:00.262Z,6.18
2019-04-04T04:50:29.413Z,6.14
2019-04-04T04:52:58.454Z,6.10
2019-04-04T04:55:28.228Z,6.06
2019-04-04T04:57:57.408Z,6.01
2019-04-04T05:00:27.915Z,5.98
2019-04-04T05:02:57.364Z,5.98
2019-04-04T05:05:26.404Z,5.97
2019-04-04T05:07:55.532Z,5.95
2019-04-04T05:10:24.594Z,5.93
2019-04-04T05:12:53.877Z,5.95
2019-04-04T05:15:22.927Z,5.97
2019-04-04T05:17:51.839Z,6.01
2019-04-04T05:20:20.889Z,6.04
2019-04-04T05:22:49.889Z,6.05
2019-04-04T05:25:18.966Z,6.11
2019-04-04T05:27:48.039Z,6.16
2019-04-04T05:30:20.149Z,6.24
2019-04-04T05:32:47.899Z,6.31
2019-04-04T05:35:17.121Z,6.36
2019-04-04T05:37:46.145Z,6.40
2019-04-04T05:40:15.426Z,6.45
2019-04-04T05:42:44.484Z,6.49
2019-04-04T05:45:15.125Z,6.54
2019-04-04T05:47:44.110Z,6.58
2019-04-04T05:50:16.294Z,6.62
2019-04-04T05:52:44.401Z,6.66
2019-04-04T05:55:13.470Z,6.68
2019-04-04T05:57:42.534Z,6.70
2019-04-04T06:00:14.429Z,6.70
2019-04-04T06:02:43.991Z,6.72
2019-04-04T06:05:13.622Z,6.71
2019-04-04T06:07:42.676Z,6.72
2019-04-04T06:10:12.329Z,6.77
2019-04-04T06:12:41.385Z,6.83
2019-04-04T06:15:10.452Z,6.84
2019-04-04T06:17:39.947Z,6.86
2019-04-04T06:20:09.208Z,6.88
2019-04-04T06:22:38.257Z,6.88
2019-04-04T06:25:07.429Z,6.89
2019-04-04T06:27:39.881Z,6.93
2019-04-04T06:30:07.809Z,6.96
2019-04-04T06:32:38.786Z,7.01
2019-04-04T06:35:07.660Z,7.05
2019-04-04T06:37:38.624Z,7.10
2019-04-04T06:40:08.798Z,7.16
2019-04-04T06:42:37.852Z,7.20
2019-04-04T06:45:07.252Z,7.22
2019-04-04T06:47:36.299Z,7.24
2019-04-04T06:50:08.038Z,7.27
2019-04-04T06:52:36.935Z,7.30
2019-04-04T06:55:06.671Z,7.35
2019-04-04T06:57:36.778Z,7.38
2019-04-04T07:00:09.045Z,7.44
2019-04-04T07:02:38.100Z,7.49
2019-04-04T07:05:10.317Z,7.56
2019-04-04T07:07:38.114Z,7.64
2019-04-04T07:10:07.208Z,7.68
2019-04-04T07:12:38.064Z,7.73
2019-04-04T07:15:11.185Z,7.73
2019-04-04T07:17:40.258Z,7.74
2019-04-04T07:20:09.340Z,7.78
2019-04-04T07:22:38.397Z,7.83
2019-04-04T07:25:07.885Z,7.88
2019-04-04T07:27:36.927Z,7.93
2019-04-04T07:30:06.599Z,7.98
2019-04-04T07:32:35.570Z,8.01
2019-04-04T07:35:04.667Z,8.04
2019-04-04T07:37:33.646Z,8.07
2019-04-04T07:40:03.542Z,8.10
2019-04-04T07:42:33.540Z,8.13
2019-04-04T07:45:02.619Z,8.15
2019-04-04T07:47:31.669Z,8.19
2019-04-04T07:50:00.665Z,8.24
2019-04-04T07:52:32.720Z,8.31
2019-04-04T07:55:00.533Z,8.33
2019-04-04T07:57:30.223Z,8.37
2019-04-04T07:59:59.548Z,8.41
2019-04-04T08:02:28.510Z,8.45
2019-04-04T08:04:57.585Z,8.51
2019-04-04T08:07:26.632Z,8.57
2019-04-04T08:09:55.724Z,8.64
2019-04-04T08:12:24.711Z,8.70
2019-04-04T08:14:53.779Z,8.80
2019-04-04T08:17:22.827Z,8.85
2019-04-04T08:19:59.463Z,8.89
2019-04-04T08:22:22.721Z,8.94
2019-04-04T08:24:51.795Z,8.99
2019-04-04T08:27:20.846Z,9.06
2019-04-04T08:29:49.847Z,9.12
2019-04-04T08:32:18.817Z,9.17
2019-04-04T08:34:47.894Z,9.24
2019-04-04T08:37:16.868Z,9.31
2019-04-04T08:39:45.940Z,9.35
2019-04-04T08:42:15.094Z,9.40
2019-04-04T08:44:44.165Z,9.45
2019-04-04T08:47:13.875Z,9.52
2019-04-04T08:49:42.944Z,9.54
2019-04-04T08:52:16.748Z,9.58
2019-04-04T08:54:42.809Z,9.61
2019-04-04T08:57:11.865Z,9.63
2019-04-04T08:59:40.930Z,9.66
2019-04-04T09:02:09.982Z,9.69
2019-04-04T09:04:38.981Z,9.71
2019-04-04T09:07:08.328Z,9.74
2019-04-04T09:09:37.491Z,9.74
2019-04-04T09:12:06.551Z,9.78
2019-04-04T09:14:35.618Z,9.82
2019-04-04T09:17:04.662Z,9.89
2019-04-04T09:19:33.723Z,9.96
2019-04-04T09:22:02.798Z,10.02
2019-04-04T09:24:31.776Z,10.03
2019-04-04T09:27:00.855Z,10.08
2019-04-04T09:29:29.907Z,10.14
2019-04-04T09:31:58.997Z,10.18
2019-04-04T09:34:28.263Z,10.21
2019-04-04T09:36:57.272Z,10.24
2019-04-04T09:39:26.244Z,10.28
2019-04-04T09:41:55.321Z,10.33
2019-04-04T09:44:24.374Z,10.38
2019-04-04T09:47:04.829Z,10.43
2019-04-04T09:49:24.238Z,10.45
2019-04-04T09:51:53.340Z,10.51
2019-04-04T09:54:22.312Z,10.59
2019-04-04T09:56:51.383Z,10.66
2019-04-04T09:59:20.437Z,10.72
2019-04-04T10:01:49.511Z,10.76
2019-04-04T10:04:18.559Z,10.82
2019-04-04T10:06:49.006Z,10.86
2019-04-04T10:09:18.109Z,10.90
2019-04-04T10:11:47.283Z,10.93
2019-04-04T10:14:16.404Z,10.95
2019-04-04T10:16:45.498Z,10.97
2019-04-04T10:19:14.564Z,11.03
2019-04-04T10:21:43.656Z,11.10
2019-04-04T10:24:12.713Z,11.15
2019-04-04T10:26:41.654Z,11.20
2019-04-04T10:29:10.723Z,11.26
2019-04-04T10:31:39.806Z,11.31
2019-04-04T10:34:08.880Z,11.40
2019-04-04T10:36:37.953Z,11.47
2019-04-04T10:39:12.257Z,11.53
2019-04-04T10:41:41.732Z,11.59
2019-04-04T10:44:10.785Z,11.63
2019-04-04T10:46:39.867Z,11.68
2019-04-04T10:49:08.851Z,11.73
2019-04-04T10:51:37.963Z,11.80
2019-04-04T10:54:07.032Z,11.84
2019-04-04T10:56:36.343Z,11.87
2019-04-04T10:59:05.565Z,11.90
2019-04-04T11:01:34.666Z,11.92
2019-04-04T11:04:03.728Z,11.92
2019-04-04T11:06:32.814Z,11.92
2019-04-04T11:09:01.860Z,11.92
2019-04-04T11:11:30.941Z,11.97
2019-04-04T11:13:59.927Z,12.02
2019-04-04T11:16:32.225Z,12.05
2019-04-04T11:19:01.309Z,12.08
2019-04-04T11:21:30.381Z,12.11
2019-04-04T11:23:59.444Z,12.16
2019-04-04T11:26:28.525Z,12.24
2019-04-04T11:28:57.580Z,12.32
2019-04-04T11:31:26.692Z,12.41
2019-04-04T11:33:55.763Z,12.48
2019-04-04T11:36:24.769Z,12.55
2019-04-04T11:38:53.847Z,12.60
2019-04-04T11:41:22.928Z,12.63
2019-04-04T11:43:51.979Z,12.68
2019-04-04T11:46:20.985Z,12.75
2019-04-04T11:48:50.036Z,12.83
2019-04-04T11:51:19.136Z,12.85
2019-04-04T11:53:48.195Z,12.93
2019-04-04T11:56:17.278Z,13.00
2019-04-04T11:58:46.333Z,13.12
2019-04-04T12:01:18.555Z,13.33
2019-04-04T12:03:47.557Z,13.56
2019-04-04T12:06:16.644Z,13.81
2019-04-04T12:08:45.764Z,13.98
2019-04-04T12:11:14.856Z,14.09
2019-04-04T12:13:43.837Z,14.18
2019-04-04T12:16:12.924Z,14.40
2019-04-04T12:18:41.989Z,14.61
2019-04-04T12:21:11.076Z,14.74
2019-04-04T12:23:40.137Z,14.87
2019-04-04T12:26:09.148Z,15.01
2019-04-04T12:28:38.222Z,15.20
2019-04-04T12:31:07.301Z,15.27
2019-04-04T12:33:36.308Z,15.32
2019-04-04T12:36:05.466Z,15.42
2019-04-04T12:38:34.481Z,15.59
2019-04-04T12:41:03.555Z,15.76
2019-04-04T12:43:32.650Z,15.94
2019-04-04T12:46:01.725Z,16.02
2019-04-04T12:48:30.815Z,16.05
2019-04-04T12:50:59.896Z,16.05
2019-04-04T12:53:28.974Z,16.11
2019-04-04T12:55:57.999Z,16.15
2019-04-04T12:58:27.084Z,16.22
2019-04-04T13:00:56.157Z,16.28
2019-04-04T13:03:25.159Z,16.39
2019-04-04T13:05:54.218Z,16.50
2019-04-04T13:08:23.303Z,16.61
2019-04-04T13:10:52.366Z,16.72
2019-04-04T13:13:21.471Z,16.79
2019-04-04T13:15:50.463Z,16.85
2019-04-04T13:18:19.468Z,16.90
2019-04-04T13:20:48.531Z,16.93
2019-04-04T13:23:17.607Z,16.97
2019-04-04T13:25:46.628Z,17.03
2019-04-04T13:28:15.717Z,17.07
2019-04-04T13:30:44.779Z,17.16
2019-04-04T13:33:13.799Z,17.31
2019-04-04T13:35:42.880Z,17.49
2019-04-04T13:38:11.959Z,17.69
2019-04-04T13:40:45.816Z,17.87
2019-04-04T13:43:11.837Z,17.98
2019-04-04T13:45:40.754Z,18.13
2019-04-04T13:48:12.431Z,18.23
2019-04-04T13:50:40.629Z,18.27
2019-04-04T13:53:09.759Z,18.31
2019-04-04T13:55:39.422Z,18.42
2019-04-04T13:58:08.710Z,18.58
2019-04-04T14:00:37.764Z,18.69
2019-04-04T14:03:06.859Z,18.78
2019-04-04T14:05:35.929Z,18.85
2019-04-04T14:08:05.017Z,18.94
2019-04-04T14:10:34.086Z,19.03
2019-04-04T14:13:03.174Z,19.01
2019-04-04T14:15:32.255Z,19.00
2019-04-04T14:18:01.251Z,18.93
2019-04-04T14:20:36.900Z,18.86
2019-04-04T14:23:05.980Z,18.89
2019-04-04T14:25:35.038Z,18.87
2019-04-04T14:28:04.128Z,18.85
2019-04-04T14:30:33.196Z,18.90
2019-04-04T14:33:02.207Z,19.02
2019-04-04T14:35:31.272Z,19.15
2019-04-04T14:38:00.282Z,19.23
2019-04-04T14:40:29.334Z,19.35
2019-04-04T14:42:58.691Z,19.40
2019-04-04T14:45:27.760Z,19.42
2019-04-04T14:47:56.829Z,19.45
2019-04-04T14:50:28.069Z,19.49
2019-04-04T14:52:56.726Z,19.48
2019-04-04T14:55:25.713Z,19.48
2019-04-04T14:57:54.794Z,19.49
2019-04-04T15:00:23.857Z,19.51
2019-04-04T15:02:52.872Z,19.50
2019-04-04T15:05:21.945Z,19.41
2019-04-04T15:07:51.021Z,19.28
2019-04-04T15:10:20.088Z,19.12
2019-04-04T15:12:49.174Z,18.99
2019-04-04T15:15:18.335Z,18.84
2019-04-04T15:17:47.436Z,18.71
2019-04-04T15:20:16.893Z,18.51
2019-04-04T15:22:45.989Z,18.25
2019-04-04T15:25:15.062Z,18.03
2019-04-04T15:27:44.070Z,17.86
2019-04-04T15:30:13.439Z,17.74
2019-04-04T15:32:42.393Z,17.63
2019-04-04T15:35:11.450Z,17.50
2019-04-04T15:37:40.552Z,17.43
2019-04-04T15:40:10.166Z,17.32
2019-04-04T15:42:39.243Z,17.29
2019-04-04T15:45:08.508Z,17.28
2019-04-04T15:47:38.294Z,17.17
2019-04-04T15:50:07.652Z,17.05
2019-04-04T15:52:36.735Z,16.99
2019-04-04T15:55:06.270Z,16.92
2019-04-04T15:57:38.873Z,16.77
2019-04-04T16:00:09.762Z,16.62
2019-04-04T16:02:38.818Z,16.53
2019-04-04T16:05:08.601Z,16.40
2019-04-04T16:07:37.680Z,16.31
2019-04-04T16:10:06.814Z,16.17
2019-04-04T16:12:35.873Z,16.03
2019-04-04T16:15:05.073Z,15.93
2019-04-04T16:17:35.003Z,15.87
2019-04-04T16:20:04.422Z,15.77
2019-04-04T16:22:33.474Z,15.65
2019-04-04T16:25:02.558Z,15.58
2019-04-04T16:27:31.616Z,15.48
2019-04-04T16:30:00.698Z,15.39
2019-04-04T16:32:29.769Z,15.25
2019-04-04T16:34:58.847Z,15.08
2019-04-04T16:37:27.904Z,14.97
2019-04-04T16:40:08.323Z,14.86
2019-04-04T16:42:27.814Z,14.75
2019-04-04T16:44:56.903Z,14.64
2019-04-04T16:47:25.975Z,14.53
2019-04-04T16:49:54.977Z,14.43
2019-04-04T16:52:24.064Z,14.32
2019-04-04T16:54:53.851Z,14.21
2019-04-04T16:57:22.936Z,14.12
2019-04-04T16:59:52.011Z,14.04
2019-04-04T17:02:21.075Z,13.93
2019-04-04T17:04:50.551Z,13.79
2019-04-04T17:07:19.604Z,13.66
2019-04-04T17:09:48.767Z,13.55
2019-04-04T17:12:17.907Z,13.45
2019-04-04T17:14:46.991Z,13.33
2019-04-04T17:17:16.051Z,13.25
2019-04-04T17:19:46.677Z,13.13
2019-04-04T17:22:15.668Z,13.01
2019-04-04T17:24:44.752Z,12.93
2019-04-04T17:27:13.800Z,12.86
2019-04-04T17:29:43.086Z,12.77
2019-04-04T17:32:12.270Z,12.64
2019-04-04T17:34:41.360Z,12.52
2019-04-04T17:37:10.411Z,12.42
2019-04-04T17:39:39.861Z,12.33
2019-04-04T17:42:08.948Z,12.22
2019-04-04T17:44:38.664Z,12.12
2019-04-04T17:47:07.819Z,12.05
2019-04-04T17:49:36.894Z,11.92
2019-04-04T17:52:06.214Z,11.81
2019-04-04T17:54:35.283Z,11.70
2019-04-04T17:57:04.406Z,11.58
2019-04-04T17:59:33.500Z,11.51
2019-04-04T18:02:02.550Z,11.42
2019-04-04T18:04:31.639Z,11.32
2019-04-04T18:07:00.792Z,11.25
2019-04-04T18:09:32.040Z,11.18
2019-04-04T18:12:00.717Z,11.10
2019-04-04T18:14:29.841Z,11.07
2019-04-04T18:16:58.901Z,11.02
2019-04-04T18:19:27.987Z,10.96
2019-04-04T18:21:57.403Z,10.93
2019-04-04T18:24:26.488Z,10.83
2019-04-04T18:26:55.597Z,10.75
2019-04-04T18:29:24.677Z,10.72
2019-04-04T18:31:53.748Z,10.65
2019-04-04T18:34:23.348Z,10.59
2019-04-04T18:36:52.509Z,10.55
2019-04-04T18:39:21.575Z,10.45
2019-04-04T18:41:51.554Z,10.39
2019-04-04T18:44:21.274Z,10.36
2019-04-04T18:46:50.335Z,10.33
2019-04-04T18:49:19.425Z,10.25
2019-04-04T18:51:48.507Z,10.19
2019-04-04T18:54:17.595Z,10.14
2019-04-04T18:56:46.666Z,10.06
2019-04-04T18:59:15.753Z,10.02
2019-04-04T19:01:44.815Z,9.95
2019-04-04T19:04:13.902Z,9.88
2019-04-04T19:06:42.883Z,9.84
2019-04-04T19:09:15.017Z,9.79
2019-04-04T19:11:44.383Z,9.71
2019-04-04T19:14:13.494Z,9.66
2019-04-04T19:16:42.506Z,9.63
2019-04-04T19:19:11.414Z,9.60
2019-04-04T19:21:40.499Z,9.54
2019-04-04T19:24:10.150Z,9.51
2019-04-04T19:26:39.232Z,9.45
2019-04-04T19:29:08.279Z,9.41
2019-04-04T19:31:37.283Z,9.36
2019-04-04T19:34:06.333Z,9.31
2019-04-04T19:36:35.406Z,9.28
2019-04-04T19:39:06.858Z,9.26
2019-04-04T19:41:35.936Z,9.23
2019-04-04T19:44:04.994Z,9.20
2019-04-04T19:46:37.335Z,9.16
2019-04-04T19:49:04.833Z,9.14
2019-04-04T19:51:33.932Z,9.11
2019-04-04T19:54:02.911Z,9.12
2019-04-04T19:56:31.999Z,9.11
2019-04-04T19:59:01.054Z,9.10
2019-04-04T20:01:30.138Z,9.07
2019-04-04T20:03:59.198Z,9.06
2019-04-04T20:06:28.274Z,9.04
2019-04-04T20:08:57.331Z,9.03
2019-04-04T20:11:26.334Z,9.02
2019-04-04T20:13:55.389Z,9.02
2019-04-04T20:16:24.465Z,9.02
2019-04-04T20:18:53.455Z,9.03
2019-04-04T20:21:22.522Z,9.03
2019-04-04T20:23:51.577Z,9.03
2019-04-04T20:26:20.664Z,9.02
2019-04-04T20:28:49.645Z,9.02
2019-04-04T20:31:18.658Z,8.99
2019-04-04T20:34:00.562Z,8.98
2019-04-04T20:36:18.363Z,8.98
2019-04-04T20:38:47.424Z,8.96
2019-04-04T20:41:16.774Z,8.92
2019-04-04T20:43:45.852Z,8.92
2019-04-04T20:46:14.928Z,8.89
2019-04-04T20:48:43.904Z,8.88
2019-04-04T20:51:12.927Z,8.87
2019-04-04T20:53:41.908Z,8.86
2019-04-04T20:56:10.987Z,8.84
2019-04-04T20:58:39.970Z,8.82
2019-04-04T21:01:09.044Z,8.78
2019-04-04T21:03:38.162Z,8.76
2019-04-04T21:06:07.238Z,8.74
2019-04-04T21:08:36.297Z,8.74
2019-04-04T21:11:05.370Z,8.71
2019-04-04T21:13:34.425Z,8.66
2019-04-04T21:16:03.496Z,8.64
2019-04-04T21:18:32.411Z,8.64
2019-04-04T21:21:01.484Z,8.61
2019-04-04T21:23:30.544Z,8.58
2019-04-04T21:25:59.707Z,8.56
2019-04-04T21:28:28.769Z,8.51
2019-04-04T21:30:57.853Z,8.48
2019-04-04T21:33:26.913Z,8.45
2019-04-04T21:35:55.994Z,8.40
2019-04-04T21:38:25.046Z,8.36
2019-04-04T21:40:54.133Z,8.35
2019-04-04T21:43:23.110Z,8.34
2019-04-04T21:45:52.091Z,8.31
2019-04-04T21:48:21.087Z,8.28
2019-04-04T21:50:50.090Z,8.24
2019-04-04T21:53:19.178Z,8.21
2019-04-04T21:55:48.239Z,8.19
2019-04-04T21:58:17.314Z,8.19
2019-04-04T22:00:46.550Z,8.18
2019-04-04T22:03:15.625Z,8.17
2019-04-04T22:05:44.684Z,8.15
2019-04-04T22:08:13.760Z,8.12
2019-04-04T22:10:42.821Z,8.09
2019-04-04T22:13:11.898Z,8.07
2019-04-04T22:15:40.951Z,8.04
2019-04-04T22:18:10.023Z,8.00
2019-04-04T22:20:39.009Z,7.98
2019-04-04T22:23:08.089Z,7.96
2019-04-04T22:25:37.142Z,7.97
2019-04-04T22:28:06.218Z,7.96
2019-04-04T22:30:35.284Z,7.97
2019-04-04T22:33:04.358Z,7.96
2019-04-04T22:35:33.411Z,7.94
2019-04-04T22:38:02.489Z,7.93
2019-04-04T22:40:31.549Z,7.92
2019-04-04T22:43:00.635Z,7.91
2019-04-04T22:45:29.681Z,7.90
2019-04-04T22:47:58.760Z,7.88
2019-04-04T22:50:27.813Z,7.86
2019-04-04T22:52:56.908Z,7.85
2019-04-04T22:55:26.714Z,7.84
2019-04-04T22:57:55.983Z,7.84
2019-04-04T23:00:25.025Z,7.84
2019-04-04T23:02:54.383Z,7.83
2019-04-04T23:05:23.446Z,7.83
2019-04-04T23:07:52.450Z,7.82
2019-04-04T23:10:21.508Z,7.82
2019-04-04T23:12:50.590Z,7.81
2019-04-04T23:15:19.639Z,7.80
2019-04-04T23:17:48.719Z,7.80
2019-04-04T23:20:17.787Z,7.79
2019-04-04T23:22:52.741Z,7.74
2019-04-04T23:25:17.645Z,7.74
2019-04-04T23:27:46.724Z,7.71
2019-04-04T23:30:15.976Z,7.68
2019-04-04T23:32:45.057Z,7.68
2019-04-04T23:35:16.465Z,7.66
2019-04-04T23:37:44.926Z,7.65
2019-04-04T23:40:13.978Z,7.64
2019-04-04T23:42:43.056Z,7.64
2019-04-04T23:45:12.111Z,7.64
2019-04-04T23:47:42.985Z,7.64
2019-04-04T23:50:12.211Z,7.63
2019-04-04T23:52:41.170Z,7.62
2019-04-04T23:55:10.328Z,7.62
2019-04-04T23:57:39.409Z,7.61
